^^
Saratoga-Weather Station Historical Data
Daily Summary for February 24, 2021 Units:  English    Metric   Both
Daily Weekly Monthly Yearly Custom
  High: Low: Average:
Temperature: 66 °F 59.4 °F 61.3 °F
Dew Point: 60.6 °F 55.4 °F 57.2 °F
Humidity: 89% 82% 86%
Wind Speed: 8.1mph 0mph 1.3mph
Wind Gust: 8mph - -
Wind- - SSW
Pressure: 30.1 in 30 in -
Precipitation: 0 in    
Historical Graphs
 
 
Tabular Data for February 24, 2021
Time Temperature Dew Point Pressure Wind Wind Speed Wind Gust Humidity Rainfall Rate (Hourly) solar
00:01 62.8 °F 57.2 °F 30.1 in ENE 2 mph 4 mph 82% 0 in 0 W/m2
00:06 62.4 °F 56.8 °F 30.1 in North 0.9 mph 4 mph 82% 0 in 0 W/m2
00:11 62.4 °F 56.8 °F 30.1 in Calm   2 mph 82% 0 in 0 W/m2
00:16 62.2 °F 56.7 °F 30.1 in West 2 mph 3 mph 82% 0 in 0 W/m2
00:21 62.1 °F 56.5 °F 30.1 in WNW 2 mph 4 mph 82% 0 in 0 W/m2
00:26 62.1 °F 56.5 °F 30.1 in NW 4.9 mph 5 mph 82% 0 in 0 W/m2
00:31 61.9 °F 56.7 °F 30.1 in West 2 mph 8 mph 83% 0 in 0 W/m2
00:36 61.9 °F 56.7 °F 30.1 in West 2.9 mph 3 mph 83% 0 in 0 W/m2
00:41 61.9 °F 56.7 °F 30.1 in WNW 2.9 mph 8 mph 83% 0 in 0 W/m2
00:46 61.7 °F 56.5 °F 30.1 in Calm   4 mph 83% 0 in 0 W/m2
00:51 61.7 °F 56.5 °F 30.1 in West 2 mph 4 mph 83% 0 in 0 W/m2
00:56 61.5 °F 56.3 °F 30.1 in NNW 2 mph 4 mph 83% 0 in 0 W/m2
01:01 61.5 °F 56.3 °F 30.1 in WNW 2.9 mph 3 mph 83% 0 in 0 W/m2
01:06 61.7 °F 56.5 °F 30.1 in WNW 0.9 mph 4 mph 83% 0 in 0 W/m2
01:11 61.7 °F 56.5 °F 30.1 in West 2.9 mph 4 mph 83% 0 in 0 W/m2
01:16 61.7 °F 56.5 °F 30.1 in NW 2 mph 2 mph 83% 0 in 0 W/m2
01:21 61.7 °F 56.5 °F 30.1 in WSW 2 mph 4 mph 83% 0 in 0 W/m2
01:26 61.5 °F 56.3 °F 30.1 in West 2 mph 3 mph 83% 0 in 0 W/m2
01:31 61.5 °F 56.3 °F 30.1 in Calm   3 mph 83% 0 in 0 W/m2
01:36 61.5 °F 56.3 °F 30.1 in East 2.9 mph 3 mph 83% 0 in 0 W/m2
01:41 61.5 °F 56.3 °F 30.1 in Calm   3 mph 83% 0 in 0 W/m2
01:46 61.5 °F 56.7 °F 30.1 in Calm   2 mph 84% 0 in 0 W/m2
01:51 61.5 °F 56.7 °F 30.1 in NW 2 mph 3 mph 84% 0 in 0 W/m2
01:56 61.5 °F 56.7 °F 30.1 in West 2 mph 4 mph 84% 0 in 0 W/m2
02:01 61.5 °F 56.3 °F 30.1 in North 0.9 mph 3 mph 83% 0 in 0 W/m2
02:06 61.5 °F 56.3 °F 30.1 in North 0.9 mph 2 mph 83% 0 in 0 W/m2
02:11 61.5 °F 56.3 °F 30.1 in SW 0.9 mph 2 mph 83% 0 in 0 W/m2
02:16 61.5 °F 56.3 °F 30.1 in Calm     83% 0 in 0 W/m2
02:21 61.5 °F 56.3 °F 30.1 in ESE 2 mph 4 mph 83% 0 in 0 W/m2
02:26 61.5 °F 56.7 °F 30.1 in ESE 2 mph 3 mph 84% 0 in 0 W/m2
02:31 61.3 °F 56.5 °F 30 in ENE 0.9 mph 4 mph 84% 0 in 0 W/m2
02:36 61.3 °F 56.5 °F 30 in West 0.9 mph 3 mph 84% 0 in 0 W/m2
02:41 61.3 °F 56.5 °F 30 in Calm   2 mph 84% 0 in 0 W/m2
02:46 61.3 °F 56.5 °F 30 in WNW 0.9 mph 3 mph 84% 0 in 0 W/m2
02:51 61.2 °F 56.3 °F 30 in West 2 mph 4 mph 84% 0 in 0 W/m2
02:56 61.2 °F 56.3 °F 30 in NNE 2 mph 6 mph 84% 0 in 0 W/m2
03:01 61.2 °F 56.3 °F 30 in WSW 2 mph 6 mph 84% 0 in 0 W/m2
03:06 61 °F 56.1 °F 30 in NW 0.9 mph 5 mph 84% 0 in 0 W/m2
03:11 61 °F 56.1 °F 30 in West 2 mph 4 mph 84% 0 in 0 W/m2
03:16 60.8 °F 55.9 °F 30 in Calm   3 mph 84% 0 in 0 W/m2
03:22 60.6 °F 56.1 °F 30 in Calm   4 mph 85% 0 in 0 W/m2
03:27 60.6 °F 55.8 °F 30 in Calm   1 mph 84% 0 in 0 W/m2
03:32 60.4 °F 55.9 °F 30 in NNW 2 mph 3 mph 85% 0 in 0 W/m2
03:37 60.4 °F 55.9 °F 30 in NW 0.9 mph 2 mph 85% 0 in 0 W/m2
03:42 60.3 °F 55.8 °F 30 in WNW 2 mph 4 mph 85% 0 in 0 W/m2
03:47 60.3 °F 55.8 °F 30 in Calm   2 mph 85% 0 in 0 W/m2
03:52 60.1 °F 55.6 °F 30 in ENE 2 mph 5 mph 85% 0 in 0 W/m2
03:57 60.1 °F 55.9 °F 30 in NNE 2 mph 3 mph 86% 0 in 0 W/m2
04:02 59.9 °F 55.8 °F 30 in Calm   5 mph 86% 0 in 0 W/m2
04:07 59.7 °F 55.6 °F 30 in WNW 0.9 mph 2 mph 86% 0 in 0 W/m2
04:12 59.7 °F 55.6 °F 30 in Calm   4 mph 86% 0 in 0 W/m2
04:17 59.5 °F 55.4 °F 30 in North 0.9 mph 2 mph 86% 0 in 0 W/m2
04:22 59.5 °F 55.4 °F 30 in WNW 2.9 mph 3 mph 86% 0 in 0 W/m2
04:27 59.5 °F 55.6 °F 30 in Calm   2 mph 87% 0 in 0 W/m2
04:32 59.4 °F 55.4 °F 30 in South 0.9 mph 4 mph 87% 0 in 0 W/m2
04:37 59.4 °F 55.4 °F 30 in NNE 0.9 mph 4 mph 87% 0 in 0 W/m2
04:42 59.4 °F 55.4 °F 30 in West 2.9 mph 6 mph 87% 0 in 0 W/m2
04:47 59.4 °F 55.4 °F 30 in East 2.9 mph 4 mph 87% 0 in 0 W/m2
04:52 59.5 °F 55.6 °F 30 in NW 4 mph 5 mph 87% 0 in 0 W/m2
04:57 59.5 °F 55.6 °F 30 in West 2 mph 3 mph 87% 0 in 0 W/m2
05:02 59.5 °F 55.6 °F 30 in ENE 0.9 mph 2 mph 87% 0 in 0 W/m2
05:07 59.5 °F 55.6 °F 30 in NNE 2 mph 5 mph 87% 0 in 0 W/m2
05:12 59.5 °F 55.6 °F 30 in Calm   2 mph 87% 0 in 0 W/m2
05:17 59.5 °F 55.6 °F 30 in Calm   2 mph 87% 0 in 0 W/m2
05:22 59.5 °F 55.6 °F 30 in North 2 mph 2 mph 87% 0 in 0 W/m2
05:27 59.5 °F 55.6 °F 30 in WNW 0.9 mph 2 mph 87% 0 in 0 W/m2
05:32 59.5 °F 55.6 °F 30 in ESE 0.9 mph 4 mph 87% 0 in 0 W/m2
05:37 59.5 °F 55.6 °F 30 in Calm   2 mph 87% 0 in 0 W/m2
05:42 59.5 °F 55.6 °F 30 in NE 0.9 mph 3 mph 87% 0 in 5 W/m2
05:47 59.5 °F 55.6 °F 30 in NE 0.9 mph 1 mph 87% 0 in 5 W/m2
05:52 59.4 °F 55.8 °F 30 in WNW 2 mph 4 mph 88% 0 in 7 W/m2
05:57 59.4 °F 55.8 °F 30 in Calm   3 mph 88% 0 in 7 W/m2
06:02 59.5 °F 55.9 °F 30 in Calm   1 mph 88% 0 in 11 W/m2
06:07 59.5 °F 55.9 °F 30 in ENE 0.9 mph 3 mph 88% 0 in 16 W/m2
06:12 59.5 °F 55.9 °F 30 in NE 4.9 mph 5 mph 88% 0 in 21 W/m2
06:17 59.5 °F 55.9 °F 30 in North 0.9 mph 4 mph 88% 0 in 21 W/m2
06:22 59.5 °F 55.9 °F 30 in WNW 0.9 mph 3 mph 88% 0 in 18 W/m2
06:27 59.5 °F 55.9 °F 30 in SW 0.9 mph 3 mph 88% 0 in 16 W/m2
06:32 59.5 °F 55.9 °F 30 in West 0.9 mph 4 mph 88% 0 in 18 W/m2
06:37 59.5 °F 55.9 °F 30 in WNW 2 mph 3 mph 88% 0 in 25 W/m2
06:42 59.7 °F 55.8 °F 30 in West 2.9 mph 6 mph 87% 0 in 26 W/m2
06:47 59.7 °F 55.8 °F 30 in North 2.9 mph 4 mph 87% 0 in 28 W/m2
06:52 59.7 °F 55.8 °F 30 in WNW 2 mph 6 mph 87% 0 in 32 W/m2
06:57 59.9 °F 56.3 °F 30 in NW 2.9 mph 6 mph 88% 0 in 33 W/m2
07:02 59.9 °F 56.3 °F 30 in NW 0.9 mph 2 mph 88% 0 in 37 W/m2
07:07 60.1 °F 56.1 °F 30 in NW 2 mph 4 mph 87% 0 in 37 W/m2
07:12 60.1 °F 56.1 °F 30 in NW 0.9 mph 3 mph 87% 0 in 35 W/m2
07:17 60.1 °F 56.1 °F 30 in SE 0.9 mph 3 mph 87% 0 in 35 W/m2
07:22 60.3 °F 56.7 °F 30 in NNW 2 mph 5 mph 88% 0 in 39 W/m2
07:27 60.3 °F 56.7 °F 30 in East 0.9 mph 3 mph 88% 0 in 42 W/m2
07:32 60.1 °F 56.5 °F 30 in NNW 2.9 mph 4 mph 88% 0 in 51 W/m2
07:37 60.1 °F 56.5 °F 30 in WNW 2.9 mph 4 mph 88% 0 in 62 W/m2
07:42 60.1 °F 56.5 °F 30 in NNW 0.9 mph 4 mph 88% 0 in 67 W/m2
07:47 60.1 °F 56.8 °F 30 in Calm   3 mph 89% 0 in 65 W/m2
07:52 60.1 °F 56.8 °F 30 in Calm   4 mph 89% 0 in 65 W/m2
07:57 60.3 °F 57 °F 30 in East 2 mph 2 mph 89% 0 in 72 W/m2
08:02 60.3 °F 57 °F 30 in Calm   4 mph 89% 0 in 88 W/m2
08:07 60.3 °F 57 °F 30 in NE 0.9 mph 1 mph 89% 0 in 90 W/m2
08:12 60.4 °F 57.2 °F 30 in NNE 2 mph 3 mph 89% 0 in 91 W/m2
08:17 60.4 °F 56.8 °F 30 in ESE 2 mph 4 mph 88% 0 in 113 W/m2
08:22 60.6 °F 57.4 °F 30 in WNW 2 mph 3 mph 89% 0 in 97 W/m2
08:27 60.6 °F 57 °F 30 in NNE 0.9 mph 3 mph 88% 0 in 97 W/m2
08:32 60.8 °F 57.2 °F 30 in SSW 0.9 mph 3 mph 88% 0 in 98 W/m2
08:37 61 °F 57.4 °F 30 in NE 0.9 mph 5 mph 88% 0 in 97 W/m2
08:42 61 °F 57.4 °F 30 in NE 0.9 mph 4 mph 88% 0 in 100 W/m2
08:47 61 °F 57 °F 30 in North 2 mph 3 mph 87% 0 in 105 W/m2
08:52 61.2 °F 57.2 °F 30 in NNW 4 mph 4 mph 87% 0 in 111 W/m2
08:57 61.2 °F 57.2 °F 30 in NNW 8.1 mph 8 mph 87% 0 in 113 W/m2
09:02 61.3 °F 57.4 °F 30 in NNW 0.9 mph 3 mph 87% 0 in 127 W/m2
09:07 61.5 °F 57.6 °F 30 in East 2 mph 6 mph 87% 0 in 134 W/m2
09:12 61.5 °F 57.6 °F 30 in NE 2 mph 5 mph 87% 0 in 158 W/m2
09:17 61.7 °F 57.7 °F 30 in Calm   3 mph 87% 0 in 165 W/m2
09:22 61.9 °F 57.9 °F 30 in ESE 4 mph 4 mph 87% 0 in 160 W/m2
09:27 61.9 °F 57.6 °F 30 in NNE 2 mph 5 mph 86% 0 in 149 W/m2
09:32 62.1 °F 58.1 °F 30 in WNW 0.9 mph 4 mph 87% 0 in 162 W/m2
09:37 62.1 °F 57.7 °F 30 in NW 2.9 mph 3 mph 86% 0 in 160 W/m2
09:42 62.2 °F 57.9 °F 30 in Calm   2 mph 86% 0 in 134 W/m2
09:47 62.2 °F 58.3 °F 30 in Calm   2 mph 87% 0 in 102 W/m2
09:52 62.4 °F 58.1 °F 30 in ESE 2.9 mph 6 mph 86% 0 in 98 W/m2
09:57 62.2 °F 57.9 °F 30 in Calm   3 mph 86% 0 in 118 W/m2
10:02 62.4 °F 58.1 °F 30 in Calm   6 mph 86% 0 in 91 W/m2
10:07 62.4 °F 58.1 °F 30 in WNW 2 mph 4 mph 86% 0 in 77 W/m2
10:12 62.4 °F 58.1 °F 30 in Calm   4 mph 86% 0 in 72 W/m2
10:17 62.4 °F 58.1 °F 30 in Calm   3 mph 86% 0 in 60 W/m2
10:22 62.4 °F 58.1 °F 30 in Calm   2 mph 86% 0 in 69 W/m2
10:27 62.4 °F 58.1 °F 30 in Calm   1 mph 86% 0 in 49 W/m2
10:32 62.4 °F 58.1 °F 30 in Calm   1 mph 86% 0 in 39 W/m2
10:37 62.4 °F 58.1 °F 30 in NE 2 mph 5 mph 86% 0 in 54 W/m2
10:43 62.6 °F 58.3 °F 30 in NE 0.9 mph 3 mph 86% 0 in 60 W/m2
10:48 62.6 °F 58.3 °F 30 in NE 0.9 mph 5 mph 86% 0 in 84 W/m2
10:53 62.6 °F 58.3 °F 30 in ESE 2 mph 3 mph 86% 0 in 91 W/m2
10:58 62.8 °F 58.8 °F 30 in NNE 0.9 mph 2 mph 87% 0 in 113 W/m2
11:03 63 °F 59 °F 30 in NNE 0.9 mph 2 mph 87% 0 in 111 W/m2
11:08 63 °F 59 °F 30 in NE 2.9 mph 3 mph 87% 0 in 88 W/m2
11:13 63 °F 59 °F 30 in Calm   3 mph 87% 0 in 79 W/m2
11:18 63 °F 58.6 °F 30 in ENE 0.9 mph 2 mph 86% 0 in 72 W/m2
11:23 62.8 °F 58.8 °F 30 in NE 0.9 mph 6 mph 87% 0 in 67 W/m2
11:28 62.8 °F 58.8 °F 30 in East 2 mph 2 mph 87% 0 in 65 W/m2
11:33 62.8 °F 58.8 °F 30 in SE 0.9 mph 3 mph 87% 0 in 76 W/m2
11:38 62.8 °F 58.8 °F 30 in SE 0.9 mph 2 mph 87% 0 in 72 W/m2
11:43 62.8 °F 58.8 °F 30 in Calm   3 mph 87% 0 in 84 W/m2
11:48 62.8 °F 58.8 °F 30 in NW 0.9 mph 2 mph 87% 0 in 104 W/m2
11:53 62.8 °F 58.8 °F 30 in WNW 2 mph 2 mph 87% 0 in 109 W/m2
11:58 62.8 °F 58.8 °F 30 in NNE 2 mph 2 mph 87% 0 in 105 W/m2
12:03 62.8 °F 58.8 °F 30 in Calm   2 mph 87% 0 in 111 W/m2
12:08 62.8 °F 58.8 °F 30 in Calm   1 mph 87% 0 in 123 W/m2
12:13 63 °F 59.4 °F 30 in Calm   1 mph 88% 0 in 139 W/m2
12:18 63 °F 59 °F 30 in NW 0.9 mph 2 mph 87% 0 in 155 W/m2
12:23 63.1 °F 59.5 °F 30 in Calm   2 mph 88% 0 in 188 W/m2
12:28 63.3 °F 59.4 °F 30 in ENE 0.9 mph 3 mph 87% 0 in 207 W/m2
12:33 63.3 °F 59.4 °F 30 in Calm   2 mph 87% 0 in 232 W/m2
12:38 63.7 °F 59.7 °F 30 in Calm   4 mph 87% 0 in 272 W/m2
12:43 63.9 °F 59.9 °F 30 in West 0.9 mph 2 mph 87% 0 in 306 W/m2
12:48 64 °F 60.1 °F 30 in NW 0.9 mph 4 mph 87% 0 in 329 W/m2
12:53 64.2 °F 59.5 °F 30 in Calm   2 mph 85% 0 in 332 W/m2
12:58 64.6 °F 60.3 °F 30 in WSW 2 mph 2 mph 86% 0 in 332 W/m2
13:03 64.8 °F 60.1 °F 30 in Calm   1 mph 85% 0 in 325 W/m2
13:08 64.9 °F 60.3 °F 30 in West 0.9 mph 1 mph 85% 0 in 292 W/m2
13:13 65.5 °F 60.4 °F 30 in Calm   2 mph 84% 0 in 294 W/m2
13:18 65.7 °F 60.4 °F 30 in NNW 2.9 mph 3 mph 83% 0 in 262 W/m2
13:23 65.8 °F 60.6 °F 30 in North 2 mph 4 mph 83% 0 in 209 W/m2
13:28 65.8 °F 60.3 °F 30 in Calm   1 mph 82% 0 in 206 W/m2
13:33 66 °F 60.4 °F 30 in Calm   1 mph 82% 0 in 220 W/m2
13:38 66 °F 60.4 °F 30 in SE 2.9 mph 4 mph 82% 0 in 207 W/m2
Juneau County Weather
Compliments of Weather Underground - 4 mb